Time;durP1;ratioP1;P1;durP2;ratioP2;P2;SDS_P1;SDS_P2;PMS_P1;PMS_P2;Temp;Humidity;BMP_temperature;BMP_pressure;BME280_temperature;BME280_humidity;BME280_pressure;Samples;Min_cycle;Max_cycle;Signal;HPM_P1;HPM_P2
2021/01/03 00:01:57;;;;;;;33.95;19.60;;;;;;;1.54;100.00;99913.93;1771376;79;21269;-70
2021/01/03 00:04:24;;;;;;;32.53;18.87;;;;;;;1.55;100.00;99902.56;1774239;81;21142;-69
2021/01/03 00:06:54;;;;;;;37.85;19.60;;;;;;;1.56;100.00;99912.38;1774155;81;21291;-71
2021/01/03 00:09:23;;;;;;;32.15;18.15;;;;;;;1.56;100.00;99917.45;1774420;81;21676;-67
2021/01/03 00:11:51;;;;;;;31.55;17.80;;;;;;;1.57;100.00;99915.39;1774317;81;21783;-69
2021/01/03 00:14:20;;;;;;;40.50;21.35;;;;;;;1.60;100.00;99910.48;1774263;81;21138;-73
2021/01/03 00:16:55;;;;;;;33.88;19.65;;;;;;;1.59;100.00;99918.91;1774425;81;21553;-66
2021/01/03 00:19:23;;;;;;;33.75;18.77;;;;;;;1.57;100.00;99914.98;1774385;81;21675;-69
2021/01/03 00:21:51;;;;;;;33.02;18.60;;;;;;;1.54;100.00;99917.75;1774303;81;21166;-65
2021/01/03 00:24:20;;;;;;;30.85;17.77;;;;;;;1.54;100.00;99926.25;1774357;81;21146;-69
2021/01/03 00:26:48;;;;;;;31.82;18.92;;;;;;;1.54;100.00;99908.84;1774347;80;21157;-72
2021/01/03 00:29:18;;;;;;;37.20;21.30;;;;;;;1.57;100.00;99919.20;1774100;81;21154;-71
2021/01/03 00:31:49;;;;;;;31.90;16.05;;;;;;;1.55;100.00;99920.77;1774296;80;21165;-67
2021/01/03 00:34:20;;;;;;;34.73;18.90;;;;;;;1.54;100.00;99914.80;1774632;81;21150;-68
2021/01/03 00:36:49;;;;;;;34.27;19.23;;;;;;;1.56;100.00;99917.06;1774402;80;21304;-69
2021/01/03 00:39:16;;;;;;;31.68;18.60;;;;;;;1.55;100.00;99920.36;1774234;81;21268;-68
2021/01/03 00:41:50;;;;;;;36.17;20.40;;;;;;;1.54;100.00;99912.27;1774223;81;21276;-64
2021/01/03 00:44:19;;;;;;;35.70;20.02;;;;;;;1.53;100.00;99918.14;1773161;81;21711;-67
2021/01/03 00:46:47;;;;;;;37.30;20.88;;;;;;;1.49;100.00;99915.78;1774602;81;21170;-68
2021/01/03 00:49:15;;;;;;;33.80;19.65;;;;;;;1.51;100.00;99906.99;1774430;81;21130;-70
2021/01/03 00:51:43;;;;;;;32.03;19.40;;;;;;;1.52;100.00;99911.28;1774397;81;21275;-66
2021/01/03 00:54:11;;;;;;;31.90;19.42;;;;;;;1.52;100.00;99901.98;1774181;81;21142;-72
2021/01/03 00:56:38;;;;;;;35.05;20.45;;;;;;;1.51;100.00;99905.31;1774364;81;21154;-70
2021/01/03 00:59:06;;;;;;;33.67;20.43;;;;;;;1.52;100.00;99901.98;1774463;80;21111;-66
2021/01/03 01:01:34;;;;;;;32.58;18.37;;;;;;;1.52;100.00;99899.83;1774213;80;21142;-66
2021/01/03 01:04:02;;;;;;;33.63;20.32;;;;;;;1.50;100.00;99906.48;1774207;79;21118;-70
2021/01/03 01:06:29;;;;;;;31.97;20.25;;;;;;;1.51;100.00;99906.59;1774246;80;21281;-69
2021/01/03 01:08:57;;;;;;;33.15;18.30;;;;;;;1.50;100.00;99907.39;1774427;81;21155;-67
2021/01/03 01:11:25;;;;;;;38.35;20.52;;;;;;;1.54;100.00;99913.53;1774179;81;21134;-67
2021/01/03 01:13:52;;;;;;;33.00;18.27;;;;;;;1.56;100.00;99911.09;1774423;81;21514;-69
2021/01/03 01:16:20;;;;;;;40.70;22.37;;;;;;;1.58;100.00;99905.69;1774303;80;21572;-68
2021/01/03 01:18:48;;;;;;;51.53;28.07;;;;;;;1.55;100.00;99902.96;1774330;81;21142;-65
2021/01/03 01:21:17;;;;;;;49.18;24.98;;;;;;;1.57;100.00;99903.94;1774242;80;21142;-69
2021/01/03 01:23:45;;;;;;;59.33;32.25;;;;;;;1.49;100.00;99908.16;1774367;81;21140;-66
2021/01/03 01:26:12;;;;;;;49.38;28.52;;;;;;;1.47;100.00;99899.94;1774170;81;21110;-65
2021/01/03 01:28:40;;;;;;;50.23;29.45;;;;;;;1.46;100.00;99902.02;1774171;81;21107;-66
2021/01/03 01:31:08;;;;;;;42.53;23.60;;;;;;;1.46;100.00;99899.47;1774199;80;21584;-69
2021/01/03 01:33:36;;;;;;;51.23;26.23;;;;;;;1.46;100.00;99899.47;1774272;81;21111;-70
2021/01/03 01:36:05;;;;;;;38.17;20.82;;;;;;;1.46;100.00;99890.56;1774455;81;21135;-72
2021/01/03 01:38:33;;;;;;;37.63;22.10;;;;;;;1.49;100.00;99901.80;1774339;81;21205;-72
2021/01/03 01:41:01;;;;;;;38.67;23.35;;;;;;;1.47;100.00;99897.40;1774394;81;21197;-71
2021/01/03 01:43:29;;;;;;;39.85;24.02;;;;;;;1.42;100.00;99895.84;1774374;81;21687;-62
2021/01/03 01:45:57;;;;;;;40.38;21.82;;;;;;;1.38;100.00;99896.45;1746653;81;21115;-66
2021/01/03 01:48:36;;;;;;;40.65;23.87;;;;;;;1.33;100.00;99901.64;1774296;81;21284;-68
2021/01/03 01:51:08;;;;;;;37.00;22.05;;;;;;;1.28;100.00;99908.98;1774369;81;21612;-62
2021/01/03 01:54:05;;;;;;;43.85;24.47;;;;;;;1.25;100.00;99909.19;1772458;81;21157;-63
2021/01/03 01:57:02;;;;;;;37.03;22.20;;;;;;;1.23;100.00;99904.39;1773887;81;21122;-66
2021/01/03 02:00:00;;;;;;;36.98;21.00;;;;;;;1.21;100.00;99913.58;1774061;81;21119;-65
2021/01/03 02:02:51;;;;;;;37.65;21.60;;;;;;;1.21;100.00;99908.49;1773598;81;21272;-63
2021/01/03 02:05:24;;;;;;;37.90;20.43;;;;;;;1.18;100.00;99908.30;1773512;81;21260;-64
2021/01/03 02:08:12;;;;;;;35.28;20.25;;;;;;;1.18;100.00;99910.84;1774180;81;21154;-63
2021/01/03 02:10:44;;;;;;;36.93;19.65;;;;;;;1.16;100.00;99912.41;1774459;81;21134;-63
2021/01/03 02:13:35;;;;;;;31.20;17.90;;;;;;;1.17;100.00;99924.33;1774271;81;21146;-61
2021/01/03 02:16:09;;;;;;;36.70;21.20;;;;;;;1.21;100.00;99928.83;1774294;81;21137;-65
2021/01/03 02:18:37;;;;;;;32.05;19.75;;;;;;;1.26;100.00;99921.10;1774016;81;21138;-66
2021/01/03 02:21:28;;;;;;;30.70;18.48;;;;;;;1.25;100.00;99923.17;1749680;80;21525;-65
2021/01/03 02:24:23;;;;;;;34.03;19.67;;;;;;;1.27;100.00;99913.59;1752212;81;21110;-63
2021/01/03 02:27:08;;;;;;;34.78;19.82;;;;;;;1.30;100.00;99904.88;1747810;81;21102;-61
2021/01/03 02:29:40;;;;;;;37.40;18.73;;;;;;;1.34;100.00;99915.23;1746221;81;21122;-68
2021/01/03 02:32:08;;;;;;;38.00;20.87;;;;;;;1.34;100.00;99926.27;1729055;81;21172;-61
2021/01/03 02:34:41;;;;;;;35.63;19.90;;;;;;;1.29;100.00;99920.02;1763036;81;21280;-64
2021/01/03 02:37:17;;;;;;;34.00;16.97;;;;;;;1.25;100.00;99924.05;1754063;81;21268;-66
2021/01/03 02:40:09;;;;;;;35.52;20.95;;;;;;;1.18;100.00;99913.39;1769845;81;21145;-63
2021/01/03 02:42:40;;;;;;;33.92;17.98;;;;;;;1.15;100.00;99917.89;1774313;81;21600;-67
2021/01/03 02:45:25;;;;;;;34.38;19.20;;;;;;;1.08;100.00;99917.87;1774098;81;21102;-65
2021/01/03 02:47:54;;;;;;;32.00;18.25;;;;;;;1.04;100.00;99921.03;1724562;82;21153;-60
2021/01/03 02:50:26;;;;;;;37.55;21.07;;;;;;;1.05;100.00;99916.81;1720687;83;21109;-63
2021/01/03 02:52:53;;;;;;;;;;;;;;;1.06;100.00;99912.20;1727221;83;21226;-67
2021/01/03 02:55:21;;;;;;;36.30;19.10;;;;;;;1.06;100.00;99926.19;1674681;85;20160;-68
2021/01/03 02:57:49;;;;;;;34.90;19.37;;;;;;;0.99;100.00;99924.94;1709679;83;21308;-65
2021/01/03 03:00:25;;;;;;;33.95;19.67;;;;;;;0.96;100.00;99917.48;1702083;83;21284;-67
2021/01/03 03:02:53;;;;;;;38.50;21.55;;;;;;;0.98;100.00;99929.52;1702120;83;21170;-62
2021/01/03 03:05:23;;;;;;;40.23;21.25;;;;;;;1.01;100.00;99918.66;1705763;83;21281;-65
2021/01/03 03:07:51;;;;;;;37.60;19.77;;;;;;;1.05;100.00;99918.09;1704050;83;21168;-64
2021/01/03 03:10:21;;;;;;;31.97;17.90;;;;;;;1.10;100.00;99920.93;1703949;83;21287;-62
2021/01/03 03:12:51;;;;;;;41.70;22.00;;;;;;;1.09;100.00;99921.30;1706580;83;21150;-63
2021/01/03 03:15:22;;;;;;;38.25;20.43;;;;;;;1.06;100.00;99916.89;1705289;83;21564;-62
2021/01/03 03:17:52;;;;;;;45.90;22.27;;;;;;;1.05;100.00;99916.42;1705044;83;21139;-59
2021/01/03 03:20:22;;;;;;;36.95;19.67;;;;;;;1.14;100.00;99925.01;1704856;83;21149;-67
2021/01/03 03:22:50;;;;;;;38.50;21.02;;;;;;;1.12;100.00;99916.80;1704032;83;21309;-67
2021/01/03 03:25:21;;;;;;;32.83;19.02;;;;;;;1.00;100.00;99927.95;1704372;83;21308;-66
2021/01/03 03:27:48;;;;;;;37.17;19.25;;;;;;;1.01;100.00;99919.53;1706419;83;21279;-63
2021/01/03 03:30:20;;;;;;;32.67;19.32;;;;;;;1.02;100.00;99919.17;1704637;83;21166;-64
2021/01/03 03:32:52;;;;;;;39.25;21.10;;;;;;;1.07;100.00;99909.78;1702904;83;21162;-62
2021/01/03 03:38:13;;;;;;;36.83;19.52;;;;;;;1.01;100.00;99928.43;1633864;86;21624;-63
2021/01/03 03:40:40;;;;;;;34.48;19.37;;;;;;;0.91;100.00;99926.08;1698010;83;21132;-65
2021/01/03 03:43:09;;;;;;;34.98;19.52;;;;;;;0.93;100.00;99914.36;1699061;83;21136;-65
2021/01/03 03:45:36;;;;;;;33.75;18.80;;;;;;;0.99;100.00;99924.94;1698736;83;21261;-61
2021/01/03 03:48:06;;;;;;;36.38;20.02;;;;;;;1.00;100.00;99928.35;1698167;83;21270;-62
2021/01/03 03:50:33;;;;;;;33.50;17.95;;;;;;;1.05;100.00;99918.96;1698150;83;21609;-63
2021/01/03 03:53:01;;;;;;;34.53;18.80;;;;;;;1.17;100.00;99925.23;1700641;83;21586;-63
2021/01/03 03:55:29;;;;;;;32.60;17.95;;;;;;;1.23;100.00;99926.00;1698071;83;21262;-61
2021/01/03 03:57:57;;;;;;;35.15;18.60;;;;;;;1.12;100.00;99928.23;1698270;83;21156;-63
2021/01/03 04:00:25;;;;;;;31.93;17.40;;;;;;;0.99;100.00;99926.57;1698223;84;21290;-65
2021/01/03 04:02:53;;;;;;;27.45;16.55;;;;;;;0.89;100.00;99922.59;1694377;83;21678;-63
2021/01/03 04:05:25;;;;;;;28.80;16.20;;;;;;;0.96;100.00;99922.17;1698177;83;21152;-64
2021/01/03 04:07:53;;;;;;;29.50;17.80;;;;;;;0.92;100.00;99932.94;1697116;83;21183;-65
2021/01/03 04:10:21;;;;;;;21.93;13.15;;;;;;;0.86;100.00;99924.50;1696961;84;21261;-65
2021/01/03 04:12:48;;;;;;;25.32;15.95;;;;;;;0.77;100.00;99945.92;1698176;83;21302;-60
2021/01/03 04:15:18;;;;;;;28.25;14.30;;;;;;;0.73;100.00;99932.52;1698434;83;21133;-64
2021/01/03 04:17:46;;;;;;;27.15;15.90;;;;;;;0.66;100.00;99935.03;1698376;83;21290;-62
2021/01/03 04:20:18;;;;;;;30.17;16.25;;;;;;;0.64;100.00;99924.79;1698269;83;21301;-65
2021/01/03 04:22:46;;;;;;;;;;;;;;;0.73;100.00;99930.84;1700769;83;21591;-64
2021/01/03 04:25:15;;;;;;;24.70;13.38;;;;;;;0.81;100.00;99928.80;1698356;83;20167;-63
2021/01/03 04:27:43;;;;;;;23.85;14.20;;;;;;;0.86;100.00;99931.25;1698151;83;21164;-63
2021/01/03 04:30:15;;;;;;;29.67;15.60;;;;;;;0.93;100.00;99940.17;1698358;83;21171;-64
2021/01/03 04:32:42;;;;;;;37.23;16.25;;;;;;;0.94;100.00;99938.10;1698542;84;21600;-61
2021/01/03 04:35:12;;;;;;;31.07;16.62;;;;;;;0.92;100.00;99945.64;1698171;83;21172;-62
2021/01/03 04:37:40;;;;;;;29.07;16.93;;;;;;;0.89;100.00;99936.92;1717281;82;21183;-68
2021/01/03 04:40:19;;;;;;;25.95;15.38;;;;;;;0.89;100.00;99939.47;1727462;83;21297;-63
2021/01/03 04:43:00;;;;;;;25.57;14.73;;;;;;;0.89;100.00;99939.47;1727563;83;21309;-65
2021/01/03 04:45:40;;;;;;;23.27;13.20;;;;;;;0.96;100.00;99931.06;1727874;83;21191;-66
2021/01/03 04:48:20;;;;;;;27.10;14.90;;;;;;;1.05;100.00;99940.97;1727787;83;21167;-63
2021/01/03 04:50:56;;;;;;;26.97;14.85;;;;;;;1.07;100.00;99945.77;1727849;82;21116;-62
2021/01/03 04:53:41;;;;;;;22.37;12.35;;;;;;;0.94;100.00;99939.01;1716675;82;21253;-68
2021/01/03 04:56:32;;;;;;;26.33;14.68;;;;;;;0.78;100.00;99937.11;1723064;82;21274;-65
2021/01/03 04:59:08;;;;;;;24.95;13.70;;;;;;;0.68;100.00;99940.22;1726935;83;21590;-64
2021/01/03 05:02:00;;;;;;;21.77;12.95;;;;;;;0.70;100.00;99933.59;1727559;83;21593;-66
2021/01/03 05:04:52;;;;;;;;;;;;;;;0.72;100.00;99930.38;1729032;82;21148;-63
2021/01/03 05:07:31;;;;;;;25.65;12.50;;;;;;;0.63;100.00;99936.98;1724845;83;20157;-65
2021/01/03 05:10:19;;;;;;;25.95;15.72;;;;;;;0.56;100.00;99923.77;1724458;83;21305;-68
2021/01/03 05:13:17;;;;;;;28.50;14.07;;;;;;;0.57;100.00;99940.40;1726821;83;21143;-63
2021/01/03 05:15:46;;;;;;;23.50;12.33;;;;;;;0.57;100.00;99940.40;1723375;83;21285;-67
2021/01/03 05:18:15;;;;;;;20.52;12.25;;;;;;;0.52;100.00;99949.38;1727433;83;21171;-67
2021/01/03 05:20:56;;;;;;;20.32;11.50;;;;;;;0.51;100.00;99937.83;1727412;83;21143;-63
2021/01/03 05:23:27;;;;;;;24.85;12.15;;;;;;;0.50;100.00;99953.86;1727341;83;21284;-64
2021/01/03 05:25:56;;;;;;;23.27;13.62;;;;;;;0.46;100.00;99946.44;1727567;83;21285;-65
2021/01/03 05:28:27;;;;;;;21.25;12.00;;;;;;;0.45;100.00;99952.67;1727379;83;21630;-67
2021/01/03 05:31:14;;;;;;;;;;;;;;;0.47;100.00;99947.31;1729939;83;21156;-65
2021/01/03 05:34:09;;;;;;;20.92;11.97;;;;;;;0.52;100.00;99960.80;1725793;83;20154;-65
2021/01/03 05:36:44;;;;;;;20.15;10.35;;;;;;;0.52;100.00;99937.95;1723450;82;21124;-65
2021/01/03 05:39:23;;;;;;;23.32;11.90;;;;;;;0.57;100.00;99956.03;1727127;82;21317;-65
2021/01/03 05:42:21;;;;;;;20.70;11.83;;;;;;;0.56;100.00;99960.60;1727338;82;21111;-62
2021/01/03 05:45:07;;;;;;;20.68;11.73;;;;;;;0.52;100.00;99958.27;1698582;84;21167;-62
2021/01/03 05:47:40;;;;;;;22.50;12.25;;;;;;;0.55;100.00;99957.58;1698307;84;21333;-66
2021/01/03 05:50:31;;;;;;;20.15;11.35;;;;;;;0.61;100.00;99956.34;1699582;84;21597;-62
2021/01/03 05:53:10;;;;;;;20.82;11.30;;;;;;;0.66;100.00;99952.81;1686434;84;21162;-67
2021/01/03 05:55:40;;;;;;;19.25;11.03;;;;;;;0.69;100.00;99948.33;1698522;84;21704;-68
2021/01/03 05:58:31;;;;;;;18.87;10.55;;;;;;;0.71;100.00;99950.58;1697568;84;21292;-67
2021/01/03 06:01:16;;;;;;;15.80;9.78;;;;;;;0.72;100.00;99944.73;1698262;83;21290;-65
2021/01/03 06:03:46;;;;;;;21.35;11.73;;;;;;;0.73;100.00;99949.03;1698204;84;21316;-66
2021/01/03 06:06:20;;;;;;;19.62;11.08;;;;;;;0.74;100.00;99954.22;1685003;84;21171;-62
2021/01/03 06:08:51;;;;;;;19.82;10.78;;;;;;;0.76;100.00;99950.09;1698098;84;21147;-67
2021/01/03 06:11:20;;;;;;;19.57;11.03;;;;;;;0.74;100.00;99961.84;1698010;84;21305;-67
2021/01/03 06:13:55;;;;;;;22.07;12.37;;;;;;;0.72;100.00;99951.09;1698293;84;21178;-64
2021/01/03 06:16:30;;;;;;;19.80;10.15;;;;;;;0.70;100.00;99957.72;1698294;84;21312;-64
2021/01/03 06:19:09;;;;;;;18.55;10.25;;;;;;;0.68;100.00;99959.28;1698323;84;21187;-69
2021/01/03 06:21:41;;;;;;;20.65;10.40;;;;;;;0.69;100.00;99975.00;1697759;84;21135;-66
2021/01/03 06:24:20;;;;;;;16.50;9.03;;;;;;;0.67;100.00;99960.94;1698310;84;21179;-69
2021/01/03 06:27:01;;;;;;;17.30;9.43;;;;;;;0.68;100.00;99971.58;1662197;85;21123;-66
2021/01/03 06:29:49;;;;;;;18.77;10.60;;;;;;;0.69;100.00;99972.09;1662519;86;21334;-70
2021/01/03 06:32:57;;;;;;;21.80;10.65;;;;;;;0.74;100.00;99962.20;1654778;86;21191;-66
2021/01/03 06:35:36;;;;;;;18.23;9.53;;;;;;;0.74;100.00;99969.83;1654750;87;21363;-70
2021/01/03 06:38:32;;;;;;;19.40;10.98;;;;;;;0.78;100.00;99971.41;1660360;84;21168;-65
2021/01/03 06:41:14;;;;;;;21.25;9.98;;;;;;;0.76;100.00;99960.66;1678932;84;21275;-64
2021/01/03 06:43:55;;;;;;;19.85;10.93;;;;;;;0.80;100.00;99967.71;1743704;80;21284;-66
2021/01/03 06:46:56;;;;;;;18.27;10.80;;;;;;;0.85;100.00;99973.97;1754773;80;21174;-64
2021/01/03 06:49:35;;;;;;;17.80;9.88;;;;;;;0.93;100.00;99966.45;1754583;80;21158;-68
2021/01/03 06:52:14;;;;;;;15.75;8.35;;;;;;;0.91;100.00;99963.33;1754609;82;21150;-64
2021/01/03 06:55:25;;;;;;;17.10;9.13;;;;;;;0.87;100.00;99959.72;1754678;82;21122;-75
2021/01/03 06:58:37;;;;;;;15.88;9.03;;;;;;;0.85;100.00;99960.88;1754623;82;21471;-69
2021/01/03 07:01:30;;;;;;;18.15;9.15;;;;;;;0.82;100.00;99951.78;1754722;80;21572;-73
2021/01/03 07:04:02;;;;;;;17.15;10.13;;;;;;;0.89;100.00;99970.87;1754818;80;21701;-74
2021/01/03 07:06:35;;;;;;;15.98;9.03;;;;;;;0.89;100.00;99975.04;1754912;82;21150;-76
2021/01/03 07:09:10;;;;;;;20.82;10.48;;;;;;;0.90;100.00;99970.47;1754509;82;21177;-71
2021/01/03 07:11:56;;;;;;;18.17;10.20;;;;;;;0.85;100.00;99948.56;1754433;82;21254;-68
2021/01/03 07:14:39;;;;;;;18.17;8.75;;;;;;;0.88;100.00;99980.92;1754781;82;21299;-78
2021/01/03 07:17:16;;;;;;;19.57;9.85;;;;;;;0.85;100.00;99954.92;1747608;82;21565;-69
2021/01/03 07:19:55;;;;;;;18.67;9.45;;;;;;;0.87;100.00;99980.05;1719497;82;21056;-73
2021/01/03 07:22:50;;;;;;;18.40;9.93;;;;;;;0.89;100.00;99958.16;1653073;83;21101;-69
2021/01/03 07:25:41;;;;;;;18.17;10.18;;;;;;;0.91;100.00;99968.01;1669313;84;21063;-74
2021/01/03 07:28:19;;;;;;;20.20;10.15;;;;;;;0.90;100.00;99979.36;1684410;84;21048;-71
2021/01/03 07:30:54;;;;;;;17.15;9.73;;;;;;;0.88;100.00;99979.65;1641544;86;21104;-74
2021/01/03 07:33:42;;;;;;;20.23;10.03;;;;;;;0.91;100.00;99956.97;1654799;85;21077;-73
2021/01/03 07:36:46;;;;;;;19.48;11.83;;;;;;;0.93;100.00;99969.00;1687664;84;21494;-73
2021/01/03 07:39:28;;;;;;;19.77;10.95;;;;;;;0.94;100.00;99975.86;1664245;85;21561;-73
2021/01/03 07:42:20;;;;;;;;;;;;;;;0.93;100.00;99965.19;1690195;84;21592;-73
2021/01/03 07:44:50;;;;;;;30.80;15.88;;;;;;;0.96;100.00;99974.27;1671193;84;20165;-74
2021/01/03 07:47:50;;;;;;;31.40;16.93;;;;;;;0.94;100.00;99966.97;1715810;82;21064;-71
2021/01/03 07:50:26;;;;;;;28.57;13.48;;;;;;;0.97;100.00;99965.02;1724481;83;21094;-77
2021/01/03 07:53:26;;;;;;;26.00;13.55;;;;;;;0.98;100.00;99953.66;1713349;82;21091;-71
2021/01/03 07:55:54;;;;;;;24.47;13.68;;;;;;;1.03;100.00;99967.54;1681151;83;21069;-74
2021/01/03 07:58:23;;;;;;;25.20;13.32;;;;;;;1.00;100.00;99962.27;1681971;84;21242;-73
2021/01/03 08:00:59;;;;;;;22.48;11.12;;;;;;;1.01;100.00;99966.55;1658129;85;21598;-76
2021/01/03 08:03:27;;;;;;;21.33;12.23;;;;;;;1.03;100.00;99965.00;1661784;86;21069;-74
2021/01/03 08:06:11;;;;;;;27.93;13.30;;;;;;;1.05;100.00;99965.11;1663453;85;21098;-71
2021/01/03 08:08:40;;;;;;;29.55;13.80;;;;;;;1.09;100.00;99959.42;1658661;84;21073;-74
2021/01/03 08:11:23;;;;;;;22.75;12.40;;;;;;;1.13;100.00;99954.16;1636456;86;21535;-76
2021/01/03 08:13:58;;;;;;;22.27;12.75;;;;;;;1.14;100.00;99966.95;1669623;85;21053;-76
2021/01/03 08:16:29;;;;;;;24.15;12.75;;;;;;;1.15;100.00;99966.59;1690253;84;21057;-63
2021/01/03 08:19:05;;;;;;;21.80;11.25;;;;;;;1.19;100.00;99956.69;1658238;86;21050;-66
2021/01/03 08:21:39;;;;;;;18.82;10.50;;;;;;;1.28;100.00;99978.03;1658027;85;21076;-66
2021/01/03 08:24:12;;;;;;;18.50;10.85;;;;;;;1.32;100.00;99972.34;1690046;85;21195;-68
2021/01/03 08:26:53;;;;;;;21.07;10.38;;;;;;;1.37;100.00;99973.51;1724874;83;21055;-71
2021/01/03 08:29:41;;;;;;;20.60;11.43;;;;;;;1.42;100.00;99968.32;1724544;82;21187;-67
2021/01/03 08:32:20;;;;;;;20.92;11.63;;;;;;;1.47;100.00;99956.77;1724616;82;21080;-67
2021/01/03 08:34:48;;;;;;;21.17;12.47;;;;;;;1.58;100.00;99973.09;1724551;82;21063;-70
2021/01/03 08:37:24;;;;;;;18.42;10.00;;;;;;;1.62;100.00;99971.25;1724832;82;21056;-74
2021/01/03 08:39:54;;;;;;;18.32;10.28;;;;;;;1.62;100.00;99981.03;1727085;82;21147;-71
2021/01/03 08:42:30;;;;;;;19.37;10.68;;;;;;;1.68;100.00;99966.53;1728016;83;21079;-69
2021/01/03 08:44:59;;;;;;;18.20;9.95;;;;;;;1.71;100.00;99975.65;1727734;82;21079;-68
2021/01/03 08:47:41;;;;;;;21.15;11.90;;;;;;;1.77;100.00;99981.11;1727616;83;21494;-65
2021/01/03 08:50:24;;;;;;;24.75;14.25;;;;;;;1.74;100.00;99988.56;1727702;83;21190;-66
2021/01/03 08:53:00;;;;;;;22.22;12.53;;;;;;;1.68;100.00;99981.80;1727566;83;21071;-67
2021/01/03 08:55:36;;;;;;;26.45;12.93;;;;;;;1.69;100.00;99975.94;1727022;82;21068;-66
2021/01/03 08:58:14;;;;;;;21.23;11.53;;;;;;;1.75;100.00;99973.77;1747160;82;21185;-69
2021/01/03 09:00:45;;;;;;;23.45;13.22;;;;;;;1.74;100.00;99965.25;1757275;81;21169;-68
2021/01/03 09:03:20;;;;;;;24.02;12.88;;;;;;;1.74;100.00;99994.92;1757527;82;21172;-67
2021/01/03 09:05:51;;;;;;;26.85;14.30;;;;;;;1.72;100.00;99978.67;1757808;81;21050;-66
2021/01/03 09:08:35;;;;;;;24.63;13.00;;;;;;;1.72;100.00;99968.49;1757691;82;21466;-67
2021/01/03 09:11:08;;;;;;;24.12;14.87;;;;;;;1.75;100.00;99986.48;1757593;82;21071;-70
2021/01/03 09:13:50;;;;;;;32.65;16.42;;;;;;;1.81;100.00;99986.89;1757506;82;21088;-74
2021/01/03 09:16:32;;;;;;;30.30;13.83;;;;;;;1.82;100.00;99991.18;1757190;81;21058;-74
2021/01/03 09:19:17;;;;;;;27.98;15.03;;;;;;;1.85;100.00;100000.27;1757801;82;21441;-67
2021/01/03 09:21:52;;;;;;;27.48;14.00;;;;;;;1.86;100.00;99998.63;1757788;80;21059;-71
2021/01/03 09:24:30;;;;;;;33.67;16.97;;;;;;;1.83;100.00;99994.59;1757596;81;21038;-74
2021/01/03 09:27:01;;;;;;;29.80;15.63;;;;;;;1.83;100.00;99994.23;1757453;82;21062;-70
2021/01/03 09:29:34;;;;;;;30.55;15.85;;;;;;;1.86;100.00;99984.23;1758226;82;21149;-70
2021/01/03 09:32:07;;;;;;;30.52;16.32;;;;;;;1.93;100.00;99994.37;1757508;81;21087;-67
2021/01/03 09:35:07;;;;;;;33.25;18.50;;;;;;;1.93;100.00;99977.47;1757744;82;21046;-68
2021/01/03 09:38:03;;;;;;;36.93;18.90;;;;;;;1.92;100.00;99992.23;1757485;81;21038;-69
2021/01/03 09:40:39;;;;;;;25.95;14.58;;;;;;;1.87;100.00;99984.70;1754056;80;21287;-67
2021/01/03 09:43:46;;;;;;;25.15;15.32;;;;;;;1.86;100.00;99975.33;1754851;82;21074;-69
2021/01/03 09:46:28;;;;;;;23.00;12.45;;;;;;;1.87;100.00;99977.07;1754378;81;21043;-69
2021/01/03 09:49:21;;;;;;;20.32;12.90;;;;;;;1.92;100.00;99969.33;1754662;82;21023;-75
2021/01/03 09:51:54;;;;;;;30.32;16.85;;;;;;;1.97;100.00;99972.16;1754697;82;21092;-69
2021/01/03 09:54:25;;;;;;;26.05;14.83;;;;;;;2.00;100.00;99972.73;1754890;80;21173;-71
2021/01/03 09:56:53;;;;;;;27.93;15.00;;;;;;;1.95;100.00;99975.88;1754370;81;21031;-72
2021/01/03 09:59:21;;;;;;;26.50;15.05;;;;;;;1.90;100.00;99965.80;1754324;82;21039;-70
2021/01/03 10:01:50;;;;;;;25.10;15.10;;;;;;;1.90;100.00;99975.11;1754290;80;21065;-71
2021/01/03 10:04:29;;;;;;;26.60;14.18;;;;;;;1.86;100.00;99959.19;1754331;82;21493;-69
2021/01/03 10:07:11;;;;;;;26.82;14.78;;;;;;;1.81;100.00;99974.16;1754765;80;21046;-71
2021/01/03 10:09:39;;;;;;;25.15;13.72;;;;;;;1.90;100.00;99967.47;1735716;82;21394;-70
2021/01/03 10:12:21;;;;;;;26.02;15.28;;;;;;;1.99;100.00;99946.81;1754737;80;21049;-71
2021/01/03 10:15:12;;;;;;;22.15;13.93;;;;;;;2.04;100.00;99957.75;1758828;80;21603;-67
2021/01/03 10:17:45;;;;;;;23.22;13.45;;;;;;;2.05;100.00;99962.44;1751069;80;21051;-69
2021/01/03 10:20:35;;;;;;;22.87;13.55;;;;;;;2.01;100.00;99966.84;1753834;81;21075;-71
2021/01/03 10:23:06;;;;;;;25.40;15.50;;;;;;;2.10;100.00;99938.14;1754469;80;21050;-67
2021/01/03 10:25:34;;;;;;;24.90;14.70;;;;;;;2.15;99.90;99932.53;1754706;82;21011;-72
2021/01/03 10:28:10;;;;;;;24.55;13.75;;;;;;;2.14;99.73;99943.91;1754339;81;21043;-68
2021/01/03 10:30:40;;;;;;;22.55;12.95;;;;;;;2.10;99.83;99934.32;1754326;80;21054;-72
2021/01/03 10:33:09;;;;;;;24.65;14.70;;;;;;;2.10;99.96;99940.28;1754607;80;21082;-68
2021/01/03 10:35:37;;;;;;;26.05;15.58;;;;;;;2.15;99.97;99935.47;1754640;82;21525;-70
2021/01/03 10:38:07;;;;;;;26.00;14.85;;;;;;;2.09;99.39;99927.48;1754433;81;21089;-69
2021/01/03 10:40:36;;;;;;;35.48;15.18;;;;;;;2.06;99.63;99918.36;1754431;80;21102;-73
2021/01/03 10:43:04;;;;;;;26.10;15.08;;;;;;;2.00;99.66;99939.65;1754667;80;21023;-72
2021/01/03 10:45:33;;;;;;;25.68;14.43;;;;;;;1.99;99.89;99929.86;1754577;80;21011;-69
2021/01/03 10:48:01;;;;;;;23.98;14.47;;;;;;;2.02;99.99;99920.26;1747187;80;21051;-69
2021/01/03 10:50:28;;;;;;;25.50;14.70;;;;;;;2.05;99.97;99906.03;1727174;82;21017;-72
2021/01/03 10:52:56;;;;;;;24.40;14.33;;;;;;;2.10;100.00;99914.83;1724715;82;21593;-69
2021/01/03 10:55:25;;;;;;;24.40;13.75;;;;;;;2.14;99.92;99911.69;1724494;83;21044;-73
2021/01/03 10:57:54;;;;;;;23.15;14.38;;;;;;;2.17;99.73;99909.72;1725386;82;21498;-70
2021/01/03 11:00:23;;;;;;;22.90;13.45;;;;;;;2.17;99.54;99914.81;1725224;82;21068;-69
2021/01/03 11:02:51;;;;;;;23.83;12.73;;;;;;;2.17;99.49;99904.63;1725196;82;21037;-68
2021/01/03 11:05:19;;;;;;;23.32;14.20;;;;;;;2.24;99.27;99919.48;1725644;82;21478;-71
2021/01/03 11:07:47;;;;;;;23.07;14.25;;;;;;;2.29;99.17;99908.27;1724969;83;21198;-69
2021/01/03 11:10:15;;;;;;;19.85;11.93;;;;;;;2.28;99.01;99920.13;1724959;83;21446;-69
2021/01/03 11:12:42;;;;;;;20.15;11.97;;;;;;;2.18;98.70;99905.09;1724936;83;21083;-66
2021/01/03 11:15:14;;;;;;;24.98;14.35;;;;;;;2.12;98.86;99909.84;1724783;83;21195;-71
2021/01/03 11:17:43;;;;;;;22.75;13.65;;;;;;;2.09;99.17;99909.66;1725033;82;21075;-70
2021/01/03 11:20:11;;;;;;;27.10;13.13;;;;;;;2.06;99.12;99903.09;1726041;82;22058;-66
2021/01/03 11:22:39;;;;;;;21.75;11.88;;;;;;;1.98;99.34;99908.99;1725634;82;21032;-71
2021/01/03 11:25:08;;;;;;;20.95;12.28;;;;;;;1.97;98.85;99908.92;1725823;82;21012;-66
2021/01/03 11:27:36;;;;;;;23.40;13.60;;;;;;;1.98;98.94;99905.58;1725838;82;21185;-67
2021/01/03 11:30:07;;;;;;;21.62;11.38;;;;;;;1.96;98.55;99892.78;1725687;83;21072;-71
2021/01/03 11:32:35;;;;;;;22.77;12.50;;;;;;;1.91;98.47;99915.41;1725665;83;21067;-73
2021/01/03 11:35:05;;;;;;;21.50;12.25;;;;;;;1.89;98.69;99920.78;1725783;82;21028;-74
2021/01/03 11:37:32;;;;;;;25.92;15.65;;;;;;;1.91;98.77;99924.71;1725860;82;21064;-66
2021/01/03 11:40:01;;;;;;;22.13;12.80;;;;;;;1.97;98.76;99901.28;1725911;81;21554;-73
2021/01/03 11:42:35;;;;;;;21.97;13.03;;;;;;;1.97;98.64;99905.98;1725519;82;21072;-70
2021/01/03 11:45:11;;;;;;;26.70;15.03;;;;;;;1.97;99.18;99915.28;1725695;82;21080;-68
2021/01/03 11:47:39;;;;;;;21.87;13.20;;;;;;;1.98;99.60;99906.45;1725330;82;21190;-67
2021/01/03 11:50:11;;;;;;;25.88;14.78;;;;;;;2.02;99.64;99908.41;1724977;83;21471;-73
2021/01/03 11:52:40;;;;;;;21.93;13.03;;;;;;;2.03;99.56;99912.69;1724991;83;21059;-73
2021/01/03 11:57:50;;;;;;;16.52;9.85;;;;;;;2.07;98.66;99906.14;1781674;80;21065;-70
2021/01/03 12:00:18;;;;;;;17.27;11.48;;;;;;;2.12;98.30;99900.92;1783259;80;21062;-73
2021/01/03 12:02:46;;;;;;;15.85;10.18;;;;;;;2.20;98.23;99911.16;1783172;80;21091;-70